Time;durP1;ratioP1;P1;durP2;ratioP2;P2;SDS_P1;SDS_P2;PMS_P1;PMS_P2;Temp;Humidity;BMP_temperature;BMP_pressure;BME280_temperature;BME280_humidity;BME280_pressure;Samples;Min_cycle;Max_cycle;Signal;HPM_P1;HPM_P2
2022/04/07 00:00:00;;;;;;;9.73;8.73;;;;;;;5.31;100.00;100712.06;1588358;90;21110;-79
2022/04/07 00:02:29;;;;;;;10.98;9.23;;;;;;;5.25;100.00;100709.33;1588759;90;21384;-79
2022/04/07 00:04:56;;;;;;;11.80;9.25;;;;;;;5.21;100.00;100712.53;1588962;90;21075;-82
2022/04/07 00:07:23;;;;;;;16.10;9.40;;;;;;;5.19;100.00;100708.36;1588899;90;21162;-79
2022/04/07 00:09:53;;;;;;;12.20;10.08;;;;;;;5.15;100.00;100713.32;1588857;90;21176;-80
2022/04/07 00:12:20;;;;;;;12.18;9.10;;;;;;;5.11;100.00;100713.08;1588959;90;21133;-85
2022/04/07 00:14:47;;;;;;;15.32;10.38;;;;;;;5.04;100.00;100701.78;1589354;90;21091;-82
2022/04/07 00:17:16;;;;;;;15.25;9.73;;;;;;;5.03;100.00;100711.72;1588880;90;21138;-85
2022/04/07 00:19:45;;;;;;;11.20;9.33;;;;;;;4.99;100.00;100708.94;1589008;90;21178;-86
2022/04/07 00:22:12;;;;;;;16.73;9.90;;;;;;;4.97;100.00;100709.45;1573180;90;21194;-81
2022/04/07 00:24:42;;;;;;;14.63;10.13;;;;;;;4.94;100.00;100709.59;1588843;90;21177;-79
2022/04/07 00:27:10;;;;;;;11.65;9.65;;;;;;;4.94;100.00;100717.81;1589177;90;21135;-79
2022/04/07 00:29:38;;;;;;;11.55;9.10;;;;;;;4.92;100.00;100710.59;1588606;90;21137;-84
2022/04/07 00:32:07;;;;;;;14.63;10.35;;;;;;;4.90;100.00;100715.84;1589112;90;21996;-80
2022/04/07 00:34:34;;;;;;;13.68;10.23;;;;;;;4.87;100.00;100710.38;1588861;90;22332;-81
2022/04/07 00:37:02;;;;;;;15.13;10.63;;;;;;;4.86;100.00;100716.89;1588935;90;21572;-85
2022/04/07 00:39:30;;;;;;;15.32;10.38;;;;;;;4.83;100.00;100714.01;1584740;90;21062;-81
2022/04/07 00:41:57;;;;;;;15.83;9.60;;;;;;;4.79;100.00;100710.36;1588659;90;21091;-80
2022/04/07 00:44:25;;;;;;;15.58;10.53;;;;;;;4.76;100.00;100722.14;1589205;90;21102;-78
2022/04/07 00:46:54;;;;;;;13.35;10.85;;;;;;;4.73;100.00;100721.37;1588965;90;21572;-79
2022/04/07 00:49:21;;;;;;;14.83;10.90;;;;;;;4.71;100.00;100721.90;1588796;90;21591;-80
2022/04/07 00:51:54;;;;;;;15.90;11.80;;;;;;;4.68;100.00;100721.22;1589046;90;21596;-79
2022/04/07 00:54:19;;;;;;;15.65;11.30;;;;;;;4.64;100.00;100722.28;1588969;90;22013;-78
2022/04/07 00:56:47;;;;;;;18.77;10.85;;;;;;;4.61;100.00;100730.98;1588820;90;21376;-87
2022/04/07 00:59:17;;;;;;;12.78;10.68;;;;;;;4.57;100.00;100727.72;1589006;90;21641;-86
2022/04/07 01:01:46;;;;;;;17.02;12.28;;;;;;;4.55;100.00;100730.00;1584077;90;21082;-86
2022/04/07 01:04:13;;;;;;;15.03;10.43;;;;;;;4.53;100.00;100730.52;1588561;90;21077;-80
2022/04/07 01:06:47;;;;;;;16.27;11.50;;;;;;;4.52;100.00;100723.72;1589074;90;21043;-80
2022/04/07 01:09:16;;;;;;;15.28;11.60;;;;;;;4.51;100.00;100724.63;1589128;90;21090;-79
2022/04/07 01:11:46;;;;;;;13.75;10.65;;;;;;;4.49;100.00;100719.98;1563547;90;21611;-89
2022/04/07 01:14:13;;;;;;;16.80;11.95;;;;;;;4.49;100.00;100722.56;1589081;90;21690;-79
2022/04/07 01:16:42;;;;;;;16.00;12.23;;;;;;;4.47;100.00;100725.22;1588522;90;21110;-79
2022/04/07 01:19:09;;;;;;;19.27;12.37;;;;;;;4.46;100.00;100726.13;1588432;90;21147;-79
2022/04/07 01:21:37;;;;;;;14.65;11.53;;;;;;;4.44;100.00;100730.98;1588933;90;21998;-79
2022/04/07 01:24:10;;;;;;;19.45;12.37;;;;;;;4.38;100.00;100730.34;1588683;90;21775;-80
2022/04/07 01:26:41;;;;;;;16.70;12.20;;;;;;;4.35;100.00;100727.93;1584612;90;21102;-79
2022/04/07 01:29:11;;;;;;;16.50;11.40;;;;;;;4.33;100.00;100726.30;1572611;90;21086;-78
2022/04/07 01:31:39;;;;;;;15.05;11.55;;;;;;;4.32;100.00;100725.95;1588209;90;21556;-80
2022/04/07 01:34:13;;;;;;;17.00;12.35;;;;;;;4.29;100.00;100723.50;1589023;90;21126;-81
2022/04/07 01:36:44;;;;;;;20.20;12.80;;;;;;;4.25;100.00;100722.34;1588587;90;21208;-79
2022/04/07 01:39:13;;;;;;;14.05;11.33;;;;;;;4.22;100.00;100725.09;1573089;90;21055;-82
2022/04/07 01:41:43;;;;;;;14.47;11.08;;;;;;;4.19;100.00;100727.80;1589073;90;21098;-79
2022/04/07 01:44:12;;;;;;;18.57;12.23;;;;;;;4.16;100.00;100737.42;1588489;90;21086;-79
2022/04/07 01:46:41;;;;;;;16.60;12.53;;;;;;;4.14;100.00;100734.06;1588854;90;21158;-80
2022/04/07 01:49:09;;;;;;;16.73;12.00;;;;;;;4.08;100.00;100730.88;1588688;90;21832;-85
2022/04/07 01:51:38;;;;;;;17.65;12.13;;;;;;;4.04;100.00;100731.94;1588715;90;21090;-79
2022/04/07 01:54:11;;;;;;;19.32;12.82;;;;;;;3.98;100.00;100737.34;1588636;90;21071;-80
2022/04/07 01:56:40;;;;;;;16.45;12.20;;;;;;;3.95;100.00;100738.80;1588358;90;21122;-85
2022/04/07 01:59:09;;;;;;;17.23;12.20;;;;;;;3.92;100.00;100736.34;1588230;90;21903;-86
2022/04/07 02:01:37;;;;;;;17.42;12.23;;;;;;;3.92;100.00;100735.06;1588471;90;21838;-80
2022/04/07 02:04:06;;;;;;;16.07;11.95;;;;;;;3.91;100.00;100736.81;1588363;90;21729;-80
2022/04/07 02:06:35;;;;;;;16.30;11.83;;;;;;;3.92;100.00;100739.78;1589438;89;21764;-84
2022/04/07 02:09:02;;;;;;;16.65;12.33;;;;;;;3.93;100.00;100740.13;1591603;90;21037;-85
2022/04/07 02:11:32;;;;;;;16.60;12.53;;;;;;;3.92;100.00;100742.78;1591041;89;21120;-80
2022/04/07 02:13:59;;;;;;;16.10;12.10;;;;;;;3.92;100.00;100747.51;1591596;89;21176;-79
2022/04/07 02:16:27;;;;;;;14.98;12.00;;;;;;;3.91;100.00;100747.12;1591228;89;21105;-81
2022/04/07 02:18:55;;;;;;;13.88;12.30;;;;;;;3.89;100.00;100740.34;1587479;89;21096;-80
2022/04/07 02:21:22;;;;;;;16.97;12.23;;;;;;;3.85;100.00;100742.22;1591670;89;21113;-78
2022/04/07 02:23:51;;;;;;;16.95;12.07;;;;;;;3.81;100.00;100746.28;1591229;89;21021;-79
2022/04/07 02:26:20;;;;;;;18.03;12.63;;;;;;;3.77;100.00;100745.16;1591739;90;21232;-80
2022/04/07 02:28:47;;;;;;;16.27;12.73;;;;;;;3.75;100.00;100743.09;1591308;90;21681;-84
2022/04/07 02:31:14;;;;;;;16.37;12.58;;;;;;;3.74;100.00;100740.12;1591131;89;21593;-81
2022/04/07 02:33:42;;;;;;;16.75;12.33;;;;;;;3.73;100.00;100744.89;1591656;89;21072;-81
2022/04/07 02:36:09;;;;;;;17.10;12.73;;;;;;;3.71;100.00;100742.86;1591280;89;21108;-79
2022/04/07 02:38:38;;;;;;;14.25;11.78;;;;;;;3.70;100.00;100750.20;1591028;89;22135;-80
2022/04/07 02:41:05;;;;;;;17.10;12.95;;;;;;;3.68;100.00;100746.84;1591660;89;21164;-79
2022/04/07 02:43:32;;;;;;;15.15;12.65;;;;;;;3.65;100.00;100746.97;1591553;89;21145;-83
2022/04/07 02:46:00;;;;;;;17.50;13.30;;;;;;;3.67;100.00;100749.50;1586883;89;21137;-88
2022/04/07 02:48:28;;;;;;;17.85;13.45;;;;;;;3.68;100.00;100752.00;1591392;89;21398;-83
2022/04/07 02:50:55;;;;;;;18.35;12.82;;;;;;;3.69;100.00;100749.81;1591362;89;21168;-87
2022/04/07 02:53:25;;;;;;;21.60;15.28;;;;;;;3.69;100.00;100745.09;1591564;89;21068;-80
2022/04/07 02:55:52;;;;;;;21.87;14.58;;;;;;;3.70;100.00;100750.63;1591598;89;21875;-83
2022/04/07 02:58:20;;;;;;;20.97;15.68;;;;;;;3.69;100.00;100753.67;1590764;89;21690;-81
2022/04/07 03:00:48;;;;;;;21.90;17.15;;;;;;;3.70;100.00;100750.20;1591350;89;21084;-83
2022/04/07 03:03:15;;;;;;;21.95;18.02;;;;;;;3.72;100.00;100755.27;1591080;90;21257;-79
2022/04/07 03:05:43;;;;;;;23.73;18.92;;;;;;;3.71;100.00;100759.60;1591829;88;21005;-81
2022/04/07 03:08:12;;;;;;;23.10;19.98;;;;;;;3.69;100.00;100756.25;1592574;88;21103;-81
2022/04/07 03:10:40;;;;;;;21.73;19.12;;;;;;;3.69;100.00;100757.53;1589154;88;21166;-80
2022/04/07 03:13:08;;;;;;;21.75;17.73;;;;;;;3.71;100.00;100755.73;1588640;90;21109;-80
2022/04/07 03:15:35;;;;;;;25.43;20.48;;;;;;;3.70;100.00;100757.92;1588682;90;21206;-83
2022/04/07 03:18:03;;;;;;;24.10;20.35;;;;;;;3.71;100.00;100763.47;1587921;90;21146;-85
2022/04/07 03:20:30;;;;;;;27.20;21.27;;;;;;;3.73;100.00;100756.48;1588216;90;21631;-80
2022/04/07 03:22:59;;;;;;;26.42;20.50;;;;;;;3.76;100.00;100766.66;1588900;90;21094;-79
2022/04/07 03:25:26;;;;;;;27.65;21.05;;;;;;;3.79;100.00;100767.83;1582350;90;21108;-79
2022/04/07 03:27:55;;;;;;;25.23;20.02;;;;;;;3.83;100.00;100774.11;1588217;90;21234;-81
2022/04/07 03:30:23;;;;;;;26.82;21.27;;;;;;;3.86;100.00;100764.50;1580310;90;21065;-80
2022/04/07 03:32:52;;;;;;;30.32;22.40;;;;;;;3.89;100.00;100775.97;1565301;90;21617;-85
2022/04/07 03:35:20;;;;;;;29.12;23.75;;;;;;;3.92;100.00;100778.86;1567337;89;21153;-79
2022/04/07 03:37:47;;;;;;;25.75;22.73;;;;;;;3.92;100.00;100778.86;1565664;91;21683;-85
2022/04/07 03:40:14;;;;;;;29.10;23.45;;;;;;;3.93;100.00;100779.25;1576802;89;21298;-88
2022/04/07 03:42:42;;;;;;;32.08;23.87;;;;;;;3.93;100.00;100775.38;1591818;89;21550;-87
2022/04/07 03:45:09;;;;;;;29.45;22.90;;;;;;;3.94;100.00;100779.17;1593863;88;21102;-88
2022/04/07 03:47:36;;;;;;;37.63;23.62;;;;;;;3.98;100.00;100787.59;1592914;88;21787;-87
2022/04/07 03:50:04;;;;;;;31.55;24.67;;;;;;;4.00;100.00;100787.55;1591446;90;21531;-80
2022/04/07 03:52:32;;;;;;;31.97;25.15;;;;;;;4.05;100.00;100784.30;1591685;90;21195;-86
2022/04/07 03:54:59;;;;;;;30.10;23.15;;;;;;;4.08;100.00;100786.28;1591830;90;21069;-84
2022/04/07 03:57:26;;;;;;;30.88;23.20;;;;;;;4.14;100.00;100779.17;1591735;90;21634;-83
2022/04/07 03:59:54;;;;;;;30.88;24.82;;;;;;;4.20;100.00;100780.20;1585791;88;21131;-81
2022/04/07 04:02:21;;;;;;;31.48;24.52;;;;;;;4.25;100.00;100780.81;1566846;91;21116;-79
2022/04/07 04:04:49;;;;;;;32.95;24.52;;;;;;;4.29;100.00;100784.09;1580946;90;21306;-79
2022/04/07 04:07:16;;;;;;;31.97;23.92;;;;;;;4.32;100.00;100786.07;1590537;90;21106;-84
2022/04/07 04:09:45;;;;;;;31.48;25.12;;;;;;;4.36;100.00;100785.47;1590440;90;21126;-81
2022/04/07 04:12:12;;;;;;;31.40;25.23;;;;;;;4.40;100.00;100783.16;1590155;90;21116;-80
2022/04/07 04:14:41;;;;;;;31.15;24.77;;;;;;;4.45;100.00;100783.77;1590240;90;21061;-81
2022/04/07 04:17:08;;;;;;;32.25;24.72;;;;;;;4.52;100.00;100783.03;1590699;90;21187;-79
2022/04/07 04:19:35;;;;;;;32.28;24.92;;;;;;;4.55;100.00;100782.87;1590534;90;21588;-80
2022/04/07 04:22:04;;;;;;;32.13;25.68;;;;;;;4.60;100.00;100780.08;1590151;90;21069;-79
2022/04/07 04:24:32;;;;;;;29.40;24.07;;;;;;;4.64;100.00;100791.47;1590127;90;21121;-78
2022/04/07 04:27:00;;;;;;;32.13;25.57;;;;;;;4.69;100.00;100783.05;1590745;90;21053;-79
2022/04/07 04:29:28;;;;;;;32.95;25.27;;;;;;;4.78;100.00;100788.23;1590242;90;21162;-78
2022/04/07 04:31:55;;;;;;;33.50;26.25;;;;;;;4.83;100.00;100784.97;1589910;90;21088;-79
2022/04/07 04:34:23;;;;;;;31.55;25.92;;;;;;;4.89;100.00;100783.84;1590019;90;21166;-79
2022/04/07 04:36:50;;;;;;;33.40;25.80;;;;;;;4.94;100.00;100788.31;1590007;90;21110;-78
2022/04/07 04:39:17;;;;;;;35.70;26.80;;;;;;;5.00;100.00;100787.18;1590181;89;21167;-79
2022/04/07 04:41:44;;;;;;;36.53;27.48;;;;;;;5.05;100.00;100780.04;1591433;90;21276;-79
2022/04/07 04:44:12;;;;;;;33.08;26.93;;;;;;;5.12;100.00;100783.16;1591304;89;21065;-79
2022/04/07 04:46:40;;;;;;;34.18;27.77;;;;;;;5.17;100.00;100781.17;1591597;89;21117;-82
2022/04/07 04:49:07;;;;;;;33.15;27.15;;;;;;;5.21;100.00;100778.84;1591690;89;21077;-81
2022/04/07 04:51:34;;;;;;;34.00;26.85;;;;;;;5.29;100.00;100781.87;1591693;89;21091;-81
2022/04/07 04:54:01;;;;;;;35.98;27.17;;;;;;;5.40;100.00;100773.58;1591303;90;21686;-79
2022/04/07 04:56:30;;;;;;;36.48;28.83;;;;;;;5.54;100.00;100779.33;1591341;90;21743;-82
2022/04/07 04:58:57;;;;;;;31.02;27.58;;;;;;;5.65;100.00;100778.78;1591318;90;21061;-80
2022/04/07 05:01:25;;;;;;;33.30;28.77;;;;;;;5.76;100.00;100782.09;1590786;89;21090;-80
2022/04/07 05:03:52;;;;;;;35.85;29.45;;;;;;;5.86;100.00;100779.41;1586647;90;21134;-80
2022/04/07 05:06:20;;;;;;;37.03;29.40;;;;;;;5.98;100.00;100781.80;1564968;90;21251;-80
2022/04/07 05:08:49;;;;;;;36.50;28.62;;;;;;;6.08;100.00;100780.88;1578217;90;21061;-80
2022/04/07 05:11:17;;;;;;;39.33;30.23;;;;;;;6.16;100.00;100780.00;1590472;88;21064;-86
2022/04/07 05:13:47;;;;;;;40.33;30.75;;;;;;;6.26;100.00;100780.33;1591054;88;21096;-80
2022/04/07 05:16:16;;;;;;;35.38;28.47;;;;;;;6.33;100.00;100777.78;1590977;88;21123;-80
2022/04/07 05:18:48;;;;;;;39.03;29.82;;;;;;;6.42;100.00;100780.34;1591075;88;21257;-80
2022/04/07 05:21:16;;;;;;;37.28;29.57;;;;;;;6.50;100.00;100779.91;1586324;88;21153;-79
2022/04/07 05:23:45;;;;;;;33.45;29.35;;;;;;;6.57;100.00;100779.49;1581299;89;21083;-79
2022/04/07 05:26:14;;;;;;;33.70;29.48;;;;;;;6.68;100.00;100767.72;1576857;89;21145;-79
2022/04/07 05:28:44;;;;;;;36.70;30.52;;;;;;;6.83;100.00;100769.88;1567822;89;21100;-79
2022/04/07 05:31:12;;;;;;;33.35;27.02;;;;;;;6.97;100.00;100769.09;1575579;89;21228;-86
2022/04/07 05:33:41;;;;;;;35.08;29.60;;;;;;;7.09;100.00;100767.92;1584194;88;21118;-88
2022/04/07 05:36:09;;;;;;;34.35;29.65;;;;;;;7.23;100.00;100761.09;1579269;89;21594;-81
2022/04/07 05:38:36;;;;;;;36.17;29.60;;;;;;;7.37;100.00;100757.70;1600847;89;21992;-84
2022/04/07 05:41:03;;;;;;;33.63;28.25;;;;;;;7.51;100.00;100752.52;1602266;89;21072;-80
2022/04/07 05:43:30;;;;;;;33.33;26.82;;;;;;;7.64;100.00;100755.21;1602412;89;21181;-80
2022/04/07 05:45:58;;;;;;;30.88;26.95;;;;;;;7.77;100.00;100749.30;1601922;89;22213;-80
2022/04/07 05:48:25;;;;;;;30.52;27.13;;;;;;;7.91;100.00;100747.98;1570289;89;21071;-80
2022/04/07 05:50:53;;;;;;;31.87;27.17;;;;;;;8.07;100.00;100750.44;1591593;89;21156;-81
2022/04/07 05:53:20;;;;;;;32.67;26.30;;;;;;;8.20;100.00;100748.77;1601653;89;21149;-79
2022/04/07 05:55:48;;;;;;;29.25;25.68;;;;;;;8.31;100.00;100751.12;1602077;89;21811;-80
2022/04/07 05:58:16;;;;;;;28.40;24.87;;;;;;;8.42;100.00;100743.50;1601677;89;21571;-79
2022/04/07 06:00:45;;;;;;;27.25;23.95;;;;;;;8.53;100.00;100744.95;1602113;89;21049;-79
2022/04/07 06:03:13;;;;;;;25.20;22.60;;;;;;;8.69;100.00;100745.28;1601757;89;21539;-79
2022/04/07 06:05:41;;;;;;;27.95;24.32;;;;;;;8.86;100.00;100744.61;1601910;89;21072;-79
2022/04/07 06:08:09;;;;;;;24.37;21.82;;;;;;;8.99;100.00;100742.89;1602058;89;21196;-81
2022/04/07 06:10:37;;;;;;;26.52;23.67;;;;;;;9.10;100.00;100742.98;1602275;89;21049;-79
2022/04/07 06:13:09;;;;;;;25.50;22.80;;;;;;;9.21;100.00;100741.45;1601936;89;21162;-79
2022/04/07 06:15:36;;;;;;;25.17;21.95;;;;;;;9.34;100.00;100742.75;1591513;89;21585;-79
2022/04/07 06:18:05;;;;;;;23.85;21.33;;;;;;;9.45;100.00;100746.28;1585190;89;21042;-79
2022/04/07 06:20:34;;;;;;;24.25;21.62;;;;;;;9.56;100.00;100746.02;1602323;88;22106;-86
2022/04/07 06:23:03;;;;;;;37.00;23.30;;;;;;;9.68;100.00;100738.66;1602153;89;21582;-81
2022/04/07 06:25:31;;;;;;;32.78;22.75;;;;;;;9.81;100.00;100742.54;1602185;89;21117;-83
2022/04/07 06:28:02;;;;;;;29.72;25.25;;;;;;;9.95;100.00;100740.28;1602009;89;21085;-79
2022/04/07 06:30:27;;;;;;;24.07;21.25;;;;;;;10.07;100.00;100733.38;1601918;89;21125;-84
2022/04/07 06:32:56;;;;;;;26.33;22.10;;;;;;;10.18;100.00;100730.82;1602003;89;21178;-81
2022/04/07 06:35:25;;;;;;;26.48;21.20;;;;;;;10.30;100.00;100736.09;1601377;89;21121;-80
2022/04/07 06:37:58;;;;;;;24.63;22.00;;;;;;;10.43;100.00;100734.77;1601979;89;21570;-82
2022/04/07 06:40:28;;;;;;;24.07;21.12;;;;;;;10.53;100.00;100729.27;1602128;89;21129;-80
2022/04/07 06:42:58;;;;;;;22.62;20.25;;;;;;;10.64;100.00;100731.89;1602150;89;21097;-81
2022/04/07 06:45:27;;;;;;;25.55;20.60;;;;;;;10.73;100.00;100724.70;1602148;89;21168;-86
2022/04/07 06:47:55;;;;;;;28.50;20.77;;;;;;;10.84;100.00;100725.69;1602056;89;21631;-83
2022/04/07 06:50:25;;;;;;;25.23;20.05;;;;;;;10.96;100.00;100722.64;1601863;89;21629;-82
2022/04/07 06:52:54;;;;;;;23.35;19.73;;;;;;;11.07;100.00;100717.92;1589754;89;21071;-85
2022/04/07 06:55:23;;;;;;;29.32;19.85;;;;;;;11.17;100.00;100722.80;1588708;90;21703;-85
2022/04/07 06:57:58;;;;;;;28.25;20.10;;;;;;;11.28;100.00;100721.49;1588792;89;21341;-80
2022/04/07 07:00:31;;;;;;;23.47;19.80;;;;;;;11.39;100.00;100722.45;1589118;90;21153;-81
2022/04/07 07:03:01;;;;;;;21.45;19.15;;;;;;;11.48;100.00;100729.57;1599059;89;21469;-81
2022/04/07 07:05:33;;;;;;;20.07;17.97;;;;;;;11.57;100.00;100726.71;1602658;89;21101;-80
2022/04/07 07:08:20;;;;;;;19.10;17.23;;;;;;;11.69;100.00;100725.78;1567310;89;21121;-80
2022/04/07 07:10:52;;;;;;;18.32;16.50;;;;;;;11.80;100.00;100720.53;1564308;89;21115;-80
2022/04/07 07:13:22;;;;;;;21.02;16.40;;;;;;;11.91;100.00;100717.06;1581926;89;21073;-81
2022/04/07 07:15:50;;;;;;;21.00;18.73;;;;;;;12.03;100.00;100721.00;1602301;89;21092;-81
2022/04/07 07:18:18;;;;;;;19.82;17.80;;;;;;;12.14;100.00;100717.04;1585739;89;21088;-88
2022/04/07 07:20:51;;;;;;;17.35;15.65;;;;;;;12.27;100.00;100717.73;1586085;88;21463;-90
2022/04/07 07:23:19;;;;;;;18.30;15.40;;;;;;;12.38;100.00;100726.00;1571956;89;21283;-80
2022/04/07 07:25:47;;;;;;;16.27;14.58;;;;;;;12.50;100.00;100718.95;1594259;89;21124;-83
2022/04/07 07:28:14;;;;;;;15.05;13.53;;;;;;;12.64;100.00;100709.98;1570824;89;21096;-83
2022/04/07 07:30:43;;;;;;;16.67;13.35;;;;;;;12.77;100.00;100707.19;1588268;89;21050;-81
2022/04/07 07:33:10;;;;;;;14.98;13.38;;;;;;;12.89;100.00;100710.08;1584679;88;21419;-82
2022/04/07 07:35:38;;;;;;;16.07;14.28;;;;;;;13.01;100.00;100708.22;1579515;88;21297;-82
2022/04/07 07:38:07;;;;;;;15.90;13.10;;;;;;;13.12;100.00;100706.00;1578575;89;21156;-82
2022/04/07 07:40:35;;;;;;;14.75;13.25;;;;;;;13.23;100.00;100698.55;1602371;89;21108;-81
2022/04/07 07:43:03;;;;;;;14.50;13.00;;;;;;;13.34;100.00;100703.70;1602691;89;21061;-82
2022/04/07 07:45:34;;;;;;;14.07;12.30;;;;;;;13.40;100.00;100703.70;1602439;89;21071;-81
2022/04/07 07:48:04;;;;;;;13.43;12.07;;;;;;;13.46;100.00;100701.86;1573089;89;21120;-88
2022/04/07 07:50:31;;;;;;;18.17;11.63;;;;;;;13.54;100.00;100696.78;1592805;89;21137;-82
2022/04/07 07:52:58;;;;;;;18.75;10.85;;;;;;;13.61;100.00;100702.33;1579308;89;21077;-84
2022/04/07 07:55:27;;;;;;;10.98;9.88;;;;;;;13.68;100.00;100690.83;1589439;88;21240;-85
2022/04/07 07:57:56;;;;;;;11.48;9.33;;;;;;;13.78;100.00;100690.87;1601309;89;21112;-82
2022/04/07 08:00:24;;;;;;;12.00;9.20;;;;;;;13.92;100.00;100692.25;1601366;88;21167;-82
2022/04/07 08:02:53;;;;;;;13.55;9.05;;;;;;;14.04;100.00;100686.77;1602133;88;21052;-82
2022/04/07 08:05:25;;;;;;;14.63;9.03;;;;;;;14.18;100.00;100687.34;1588730;88;21528;-82
2022/04/07 08:07:53;;;;;;;11.75;7.80;;;;;;;14.31;100.00;100679.19;1615441;87;21120;-82
2022/04/07 08:10:21;;;;;;;7.87;7.12;;;;;;;14.45;95.35;100679.26;1606003;88;21041;-82
2022/04/07 08:12:49;;;;;;;8.48;7.58;;;;;;;14.62;95.22;100669.38;1607433;88;21209;-83
2022/04/07 08:15:17;;;;;;;9.58;8.60;;;;;;;14.79;89.32;100675.72;1598275;88;21185;-82
2022/04/07 08:17:45;;;;;;;10.43;8.03;;;;;;;14.93;87.97;100665.77;1610642;88;21097;-82
2022/04/07 08:20:13;;;;;;;9.33;8.20;;;;;;;15.02;88.19;100666.23;1594748;88;21136;-81
2022/04/07 08:22:42;;;;;;;7.22;6.53;;;;;;;15.13;87.26;100665.22;1591541;89;21183;-88
2022/04/07 08:25:10;;;;;;;8.78;6.10;;;;;;;15.22;78.84;100662.20;1607165;87;21174;-86
2022/04/07 08:27:38;;;;;;;6.95;6.35;;;;;;;15.29;73.25;100648.38;1598277;87;21128;-87
2022/04/07 08:30:08;;;;;;;8.48;6.30;;;;;;;15.40;74.86;100651.28;1606931;87;21310;-84
2022/04/07 08:32:36;;;;;;;9.25;6.90;;;;;;;15.48;74.37;100647.92;1606958;87;21378;-80
2022/04/07 08:35:05;;;;;;;8.40;6.30;;;;;;;15.58;72.49;100633.45;1593078;87;21636;-82
2022/04/07 08:37:37;;;;;;;23.00;19.62;;;;;;;15.68;70.30;100638.62;1570009;90;21258;-82
2022/04/07 08:40:07;;;;;;;;;;;;;;;15.76;67.88;100634.77;1587840;90;21588;-81
2022/04/07 08:42:37;;;;;;;7.17;6.30;;;;;;;15.83;67.29;100620.55;1585628;90;20191;-82
2022/04/07 08:45:06;;;;;;;7.22;6.40;;;;;;;15.91;66.81;100620.66;1611780;88;21152;-80
2022/04/07 08:47:34;;;;;;;6.67;5.62;;;;;;;16.03;64.62;100622.56;1584420;90;21112;-81
2022/04/07 08:50:05;;;;;;;7.25;6.33;;;;;;;16.09;63.78;100626.73;1617149;87;21108;-82
2022/04/07 08:52:34;;;;;;;8.13;6.40;;;;;;;16.13;63.87;100619.87;1602877;88;21113;-80
2022/04/07 08:55:05;;;;;;;7.15;6.45;;;;;;;16.18;64.42;100612.35;1612628;88;21116;-79
2022/04/07 08:57:34;;;;;;;7.50;6.33;;;;;;;16.28;64.92;100605.22;1575022;88;21370;-79
2022/04/07 09:00:04;;;;;;;6.45;5.60;;;;;;;16.38;63.02;100611.17;1592972;90;21058;-79
2022/04/07 09:02:31;;;;;;;6.92;6.00;;;;;;;16.47;61.83;100600.72;1607602;88;21290;-80
2022/04/07 09:05:01;;;;;;;8.75;6.08;;;;;;;16.53;61.37;100600.13;1598439;88;21142;-78
2022/04/07 09:07:33;;;;;;;9.30;5.95;;;;;;;16.59;60.51;100593.41;1613245;88;21133;-81
2022/04/07 09:10:05;;;;;;;7.55;5.85;;;;;;;16.65;59.38;100596.75;1593495;88;21132;-81
2022/04/07 09:12:34;;;;;;;5.72;5.12;;;;;;;16.70;60.33;100587.89;1576956;90;21562;-84
2022/04/07 09:15:03;;;;;;;7.17;5.45;;;;;;;16.82;59.23;100583.19;1592185;90;21125;-80
2022/04/07 09:17:33;;;;;;;8.75;5.05;;;;;;;16.96;57.93;100584.44;1611791;88;21879;-80
2022/04/07 09:20:04;;;;;;;6.17;5.55;;;;;;;17.02;57.36;100578.03;1614214;87;21074;-79
2022/04/07 09:22:33;;;;;;;7.03;5.42;;;;;;;17.07;57.26;100569.67;1602892;87;21953;-81
2022/04/07 09:25:06;;;;;;;6.12;5.37;;;;;;;17.15;56.33;100578.91;1612246;88;21111;-82
2022/04/07 09:27:33;;;;;;;5.60;5.10;;;;;;;17.22;56.05;100572.52;1584931;88;21844;-83
2022/04/07 09:30:00;;;;;;;5.72;5.22;;;;;;;17.28;56.14;100567.12;1574431;90;21095;-80
2022/04/07 09:32:29;;;;;;;6.87;5.20;;;;;;;17.34;54.35;100565.16;1575972;89;21101;-79
2022/04/07 09:35:00;;;;;;;5.45;4.95;;;;;;;17.37;54.74;100565.31;1586711;88;21163;-80
2022/04/07 09:37:29;;;;;;;7.03;5.45;;;;;;;17.37;55.47;100552.16;1588497;88;21115;-81
2022/04/07 09:40:10;;;;;;;7.40;5.35;;;;;;;17.43;54.64;100556.30;1546437;90;21874;-79
2022/04/07 09:42:41;;;;;;;5.55;5.05;;;;;;;17.49;55.18;100552.20;1571996;88;21097;-80
2022/04/07 09:45:12;;;;;;;6.75;5.42;;;;;;;17.59;54.71;100546.77;1588213;88;21096;-79
2022/04/07 09:47:48;;;;;;;6.12;5.53;;;;;;;17.70;53.87;100535.09;1576856;88;21076;-79
2022/04/07 09:50:33;;;;;;;8.60;5.28;;;;;;;17.76;52.72;100541.01;1604291;88;21093;-81
2022/04/07 09:52:59;;;;;;;10.25;5.58;;;;;;;17.80;53.61;100540.52;1569717;89;21809;-78
2022/04/07 09:55:43;;;;;;;6.30;5.33;;;;;;;17.87;52.60;100535.90;1612108;88;21137;-87
2022/04/07 09:58:12;;;;;;;5.75;5.17;;;;;;;17.89;51.64;100527.34;1579260;89;21121;-82
2022/04/07 10:00:40;;;;;;;7.75;7.03;;;;;;;17.91;51.52;100531.45;1570480;88;22245;-85
2022/04/07 10:03:13;;;;;;;6.97;5.15;;;;;;;17.95;51.19;100526.68;1589261;88;21123;-81
2022/04/07 10:05:40;;;;;;;5.65;5.05;;;;;;;18.05;50.60;100516.02;1598333;88;21586;-86
2022/04/07 10:08:09;;;;;;;6.15;4.90;;;;;;;18.07;49.37;100510.91;1606965;88;21180;-80
2022/04/07 10:10:39;;;;;;;9.38;5.80;;;;;;;18.08;49.30;100511.72;1608435;88;21105;-81
2022/04/07 10:13:09;;;;;;;5.00;4.50;;;;;;;18.09;48.29;100517.31;1590516;88;21131;-82
2022/04/07 10:15:37;;;;;;;6.00;5.08;;;;;;;18.07;48.15;100505.64;1607807;87;21534;-81
2022/04/07 10:18:12;;;;;;;5.80;4.78;;;;;;;18.11;47.20;100486.36;1580841;88;21260;-80
2022/04/07 10:20:45;;;;;;;6.17;4.70;;;;;;;18.18;47.11;100500.51;1546326;90;21160;-85
2022/04/07 10:23:50;;;;;;;5.75;4.85;;;;;;;18.24;47.44;100486.65;1604799;88;21654;-82
2022/04/07 10:26:19;;;;;;;5.20;4.70;;;;;;;18.33;46.54;100488.78;1614299;88;21088;-88
2022/04/07 10:28:58;;;;;;;5.37;4.47;;;;;;;18.34;45.04;100484.32;1612782;88;21089;-81
2022/04/07 10:31:29;;;;;;;7.53;4.42;;;;;;;18.26;44.30;100478.09;1589094;89;21182;-81
2022/04/07 10:34:07;;;;;;;7.22;4.22;;;;;;;18.28;44.57;100489.29;1586296;90;21136;-81
2022/04/07 10:36:39;;;;;;;5.33;4.50;;;;;;;18.36;44.62;100477.88;1622723;87;21045;-81
2022/04/07 10:39:14;;;;;;;7.12;4.95;;;;;;;18.41;43.26;100477.37;1602262;88;21557;-82
2022/04/07 10:41:45;;;;;;;5.45;4.83;;;;;;;18.45;41.28;100470.78;1611553;88;21089;-87
2022/04/07 10:44:20;;;;;;;6.37;4.85;;;;;;;18.42;41.50;100469.32;1604754;88;21149;-83
2022/04/07 10:46:48;;;;;;;6.00;4.85;;;;;;;18.38;40.48;100471.14;1600748;88;21131;-81
2022/04/07 10:49:25;;;;;;;6.50;5.40;;;;;;;18.35;40.43;100457.78;1612942;88;21164;-81
2022/04/07 10:51:55;;;;;;;6.20;5.20;;;;;;;18.36;39.83;100470.48;1601481;88;21578;-83
2022/04/07 10:54:30;;;;;;;10.43;5.58;;;;;;;18.34;38.47;100461.92;1603535;88;21701;-80
2022/04/07 10:57:01;;;;;;;8.10;4.95;;;;;;;18.33;39.73;100465.55;1609733;87;21135;-81
2022/04/07 10:59:32;;;;;;;7.15;5.15;;;;;;;18.39;39.98;100459.58;1628312;87;21190;-82
2022/04/07 11:02:03;;;;;;;;;;;;;;;18.45;39.68;100451.02;1588450;89;21171;-88
2022/04/07 11:04:35;;;;;;;7.78;5.40;;;;;;;18.47;36.69;100452.16;1613801;87;20217;-81
2022/04/07 11:07:15;;;;;;;7.87;5.75;;;;;;;18.47;37.48;100441.09;1601139;89;21076;-92
2022/04/07 11:10:03;;;;;;;7.85;5.33;;;;;;;18.51;39.29;100435.82;1582950;89;21117;-81
2022/04/07 11:12:43;;;;;;;6.55;4.95;;;;;;;18.55;39.29;100425.75;1585571;89;21628;-81
2022/04/07 11:15:26;;;;;;;5.92;5.25;;;;;;;18.66;39.76;100424.06;1628936;87;21125;-81
2022/04/07 11:17:57;;;;;;;5.87;5.03;;;;;;;18.76;39.54;100415.92;1611436;87;21089;-82
2022/04/07 11:20:27;;;;;;;5.30;4.70;;;;;;;18.87;38.90;100406.78;1603395;88;21195;-81
2022/04/07 11:23:08;;;;;;;7.58;5.05;;;;;;;18.94;39.40;100414.34;1592024;90;21195;-80